createdAt,value
2019-02-22T00:00:09.041Z,8.17
2019-02-22T00:01:10.031Z,8.18
2019-02-22T00:02:09.026Z,8.23
2019-02-22T00:03:10.001Z,8.13
2019-02-22T00:04:10.027Z,8.24
2019-02-22T00:05:09.985Z,8.21
2019-02-22T00:06:08.973Z,8.21
2019-02-22T00:07:08.989Z,8.20
2019-02-22T00:08:08.953Z,8.21
2019-02-22T00:09:09.981Z,8.13
2019-02-22T00:10:09.938Z,8.26
2019-02-22T00:11:09.937Z,8.18
2019-02-22T00:12:09.935Z,8.26
2019-02-22T00:13:09.919Z,8.32
2019-02-22T00:14:08.887Z,8.23
2019-02-22T00:15:09.877Z,8.23
2019-02-22T00:16:09.855Z,8.20
2019-02-22T00:17:09.847Z,8.21
2019-02-22T00:18:09.880Z,8.26
2019-02-22T00:19:09.857Z,8.27
2019-02-22T00:20:08.817Z,8.23
2019-02-22T00:21:09.805Z,8.24
2019-02-22T00:22:08.797Z,8.32
2019-02-22T00:23:09.777Z,8.26
2019-02-22T00:24:08.819Z,8.27
2019-02-22T00:25:09.789Z,8.26
2019-02-22T00:26:11.118Z,8.23
2019-02-22T00:28:08.729Z,8.26
2019-02-22T00:29:09.721Z,8.27
2019-02-22T00:30:08.706Z,8.32
2019-02-22T00:31:09.729Z,8.31
2019-02-22T00:32:09.685Z,8.26
2019-02-22T00:33:11.183Z,8.32
2019-02-22T00:34:09.686Z,8.17
2019-02-22T00:35:09.716Z,8.35
2019-02-22T00:36:09.639Z,8.28
2019-02-22T00:37:09.641Z,8.26
2019-02-22T00:38:08.643Z,8.32
2019-02-22T00:39:08.609Z,8.32
2019-02-22T00:40:09.610Z,8.31
2019-02-22T00:41:09.578Z,8.34
2019-02-22T00:42:09.578Z,8.34
2019-02-22T00:43:09.571Z,8.34
2019-02-22T00:44:09.545Z,8.34
2019-02-22T00:45:09.550Z,8.34
2019-02-22T00:46:09.597Z,8.34
2019-02-22T00:47:09.529Z,8.27
2019-02-22T00:48:12.344Z,8.32
2019-02-22T00:49:09.499Z,8.34
2019-02-22T00:50:09.481Z,8.39
2019-02-22T00:51:08.479Z,8.34
2019-02-22T00:52:08.501Z,8.38
2019-02-22T00:53:08.449Z,8.32
2019-02-22T00:54:09.455Z,8.39
2019-02-22T00:55:09.454Z,8.35
2019-02-22T00:56:09.419Z,8.36
2019-02-22T00:57:08.408Z,8.36
2019-02-22T00:58:09.398Z,8.35
2019-02-22T00:59:08.394Z,8.38
2019-02-22T01:00:09.425Z,8.32
2019-02-22T01:01:09.364Z,8.41
2019-02-22T01:02:08.353Z,8.36
2019-02-22T01:03:08.346Z,8.36
2019-02-22T01:04:09.334Z,8.35
2019-02-22T01:05:08.318Z,8.36
2019-02-22T01:06:09.476Z,8.38
2019-02-22T01:07:08.298Z,8.38
2019-02-22T01:08:09.295Z,8.39
2019-02-22T01:09:09.274Z,8.38
2019-02-22T01:10:09.286Z,8.38
2019-02-22T01:11:09.316Z,8.36
2019-02-22T01:12:08.297Z,8.36
2019-02-22T01:13:09.229Z,8.32
2019-02-22T01:14:09.225Z,8.31
2019-02-22T01:15:09.211Z,8.42
2019-02-22T01:16:09.198Z,8.32
2019-02-22T01:17:09.210Z,8.39
2019-02-22T01:18:09.173Z,8.39
2019-02-22T01:19:09.166Z,8.35
2019-02-22T01:20:08.152Z,8.34
2019-02-22T01:21:09.145Z,8.35
2019-02-22T01:22:08.150Z,8.36
2019-02-22T01:23:09.175Z,8.39
2019-02-22T01:24:09.111Z,8.36
2019-02-22T01:25:09.100Z,8.39
2019-02-22T01:26:08.102Z,8.38
2019-02-22T01:27:09.081Z,8.35
2019-02-22T01:28:09.086Z,8.32
2019-02-22T01:29:09.081Z,8.36
2019-02-22T01:30:09.061Z,8.39
2019-02-22T01:31:09.031Z,8.38
2019-02-22T01:32:09.026Z,8.39
2019-02-22T01:33:09.014Z,8.39
2019-02-22T01:34:09.002Z,8.34
2019-02-22T01:35:09.003Z,8.44
2019-02-22T01:36:07.980Z,8.38
2019-02-22T01:37:07.969Z,8.38
2019-02-22T01:38:07.984Z,8.39
2019-02-22T01:39:07.950Z,8.34
2019-02-22T01:40:07.934Z,8.35
2019-02-22T01:41:08.940Z,8.38
2019-02-22T01:42:10.750Z,8.41
2019-02-22T01:43:07.898Z,8.36
2019-02-22T01:44:08.933Z,8.32
2019-02-22T01:45:08.897Z,8.36
2019-02-22T01:46:08.871Z,8.35
2019-02-22T01:47:08.859Z,8.44
2019-02-22T01:48:08.849Z,8.36
2019-02-22T01:49:07.865Z,8.36
2019-02-22T01:50:07.830Z,8.35
2019-02-22T01:51:08.854Z,8.45
2019-02-22T01:52:08.799Z,8.50
2019-02-22T01:53:08.801Z,8.46
2019-02-22T01:54:08.783Z,8.49
2019-02-22T01:55:07.779Z,8.50
2019-02-22T01:56:08.794Z,8.49
2019-02-22T01:57:08.751Z,8.49
2019-02-22T01:58:07.738Z,8.50
2019-02-22T01:59:07.735Z,8.49
2019-02-22T02:00:08.713Z,8.44
2019-02-22T02:01:08.745Z,8.46
2019-02-22T02:02:08.688Z,8.45
2019-02-22T02:03:08.675Z,8.50
2019-02-22T02:04:08.702Z,8.54
2019-02-22T02:06:07.685Z,8.50
2019-02-22T02:07:07.650Z,8.45
2019-02-22T02:08:08.628Z,8.46
2019-02-22T02:09:08.249Z,8.46
2019-02-22T02:10:08.602Z,8.50
2019-02-22T02:11:07.630Z,8.50
2019-02-22T02:12:08.581Z,8.59
2019-02-22T02:13:08.574Z,8.57
2019-02-22T02:14:08.560Z,8.52
2019-02-22T02:15:08.555Z,8.53
2019-02-22T02:16:08.562Z,8.60
2019-02-22T02:17:08.558Z,8.59
2019-02-22T02:18:08.516Z,8.60
2019-02-22T02:19:08.514Z,8.53
2019-02-22T02:20:08.580Z,8.60
2019-02-22T02:21:08.483Z,8.60
2019-02-22T02:22:08.468Z,8.60
2019-02-22T02:23:08.502Z,8.60
2019-02-22T02:24:08.455Z,8.59
2019-02-22T02:25:08.445Z,8.57
2019-02-22T02:26:07.432Z,8.59
2019-02-22T02:27:08.428Z,8.54
2019-02-22T02:28:08.415Z,8.63
2019-02-22T02:29:08.425Z,8.60
2019-02-22T02:30:08.399Z,8.63
2019-02-22T02:31:08.378Z,8.57
2019-02-22T02:32:08.397Z,8.64
2019-02-22T02:33:08.358Z,8.54
2019-02-22T02:34:08.342Z,8.64
2019-02-22T02:35:08.333Z,8.63
2019-02-22T02:36:08.321Z,8.59
2019-02-22T02:37:08.308Z,8.68
2019-02-22T02:38:08.329Z,8.61
2019-02-22T02:39:08.284Z,8.59
2019-02-22T02:40:07.280Z,8.63
2019-02-22T02:41:11.164Z,8.63
2019-02-22T02:42:08.254Z,8.61
2019-02-22T02:43:07.244Z,8.63
2019-02-22T02:44:08.265Z,8.63
2019-02-22T02:45:08.217Z,8.64
2019-02-22T02:46:08.245Z,8.69
2019-02-22T02:47:07.211Z,8.71
2019-02-22T02:48:08.188Z,8.66
2019-02-22T02:49:07.176Z,8.69
2019-02-22T02:50:08.170Z,8.63
2019-02-22T02:51:07.189Z,8.71
2019-02-22T02:52:08.153Z,8.69
2019-02-22T02:53:08.138Z,8.63
2019-02-22T02:54:08.135Z,8.66
2019-02-22T02:55:07.110Z,8.66
2019-02-22T02:56:07.137Z,8.68
2019-02-22T02:57:07.101Z,8.69
2019-02-22T02:58:08.076Z,8.68
2019-02-22T02:59:08.066Z,8.69
2019-02-22T03:00:08.052Z,8.68
2019-02-22T03:01:07.083Z,8.69
2019-02-22T03:02:07.035Z,8.69
2019-02-22T03:03:08.037Z,8.66
2019-02-22T03:04:08.020Z,8.60
2019-02-22T03:05:08.038Z,8.60
2019-02-22T03:06:07.986Z,8.61
2019-02-22T03:07:07.982Z,8.57
2019-02-22T03:08:07.969Z,8.61
2019-02-22T03:09:06.966Z,8.64
2019-02-22T03:10:07.971Z,8.60
2019-02-22T03:11:19.683Z,8.63
2019-02-22T03:12:07.927Z,8.61
2019-02-22T03:13:06.917Z,8.71
2019-02-22T03:14:07.900Z,8.66
2019-02-22T03:15:07.898Z,8.63
2019-02-22T03:16:07.922Z,8.61
2019-02-22T03:17:07.873Z,8.63
2019-02-22T03:18:07.868Z,8.61
2019-02-22T03:19:06.850Z,8.66
2019-02-22T03:20:07.868Z,8.63
2019-02-22T03:21:07.828Z,8.61
2019-02-22T03:22:06.822Z,8.66
2019-02-22T03:23:07.796Z,8.64
2019-02-22T03:24:07.794Z,8.63
2019-02-22T03:25:07.778Z,8.71
2019-02-22T03:26:06.793Z,8.66
2019-02-22T03:27:07.760Z,8.61
2019-02-22T03:28:06.755Z,8.63
2019-02-22T03:29:07.735Z,8.61
2019-02-22T03:31:06.728Z,8.68
2019-02-22T03:32:07.713Z,8.61
2019-02-22T03:33:06.705Z,8.61
2019-02-22T03:34:06.911Z,8.59
2019-02-22T03:35:07.702Z,8.64
2019-02-22T03:37:07.042Z,8.60
2019-02-22T03:39:06.630Z,8.64
2019-02-22T03:40:07.623Z,8.60
2019-02-22T03:41:07.608Z,8.59
2019-02-22T03:42:07.630Z,8.61
2019-02-22T03:43:07.585Z,8.61
2019-02-22T03:44:07.573Z,8.57
2019-02-22T03:45:07.594Z,8.59
2019-02-22T03:46:07.553Z,8.68
2019-02-22T03:47:07.571Z,8.66
2019-02-22T03:48:07.533Z,8.64
2019-02-22T03:49:06.523Z,8.61
2019-02-22T03:50:06.507Z,8.61
2019-02-22T03:51:07.506Z,8.59
2019-02-22T03:52:07.514Z,8.57
2019-02-22T03:53:07.475Z,8.64
2019-02-22T03:55:06.452Z,8.60
2019-02-22T03:56:07.439Z,8.56
2019-02-22T03:57:06.463Z,8.59
2019-02-22T03:58:06.422Z,8.60
2019-02-22T03:59:07.408Z,8.57
2019-02-22T04:00:06.406Z,8.57
2019-02-22T04:01:06.390Z,8.57
2019-02-22T04:03:06.412Z,8.64
2019-02-22T04:04:07.351Z,8.59
2019-02-22T04:05:06.339Z,8.60
2019-02-22T04:06:07.328Z,8.68
2019-02-22T04:07:06.320Z,8.60
2019-02-22T04:08:07.582Z,8.63
2019-02-22T04:09:06.298Z,8.57
2019-02-22T04:10:06.306Z,8.61
2019-02-22T04:11:07.285Z,8.59
2019-02-22T04:12:07.309Z,8.60
2019-02-22T04:13:07.253Z,8.60
2019-02-22T04:14:06.249Z,8.50
2019-02-22T04:15:07.231Z,8.59
2019-02-22T04:16:06.261Z,8.61
2019-02-22T04:17:07.215Z,8.60
2019-02-22T04:18:07.204Z,8.63
2019-02-22T04:19:07.196Z,8.57
2019-02-22T04:20:06.182Z,8.57
2019-02-22T04:21:07.704Z,8.59
2019-02-22T04:22:07.159Z,8.57
2019-02-22T04:23:06.151Z,8.59
2019-02-22T04:24:07.129Z,8.56
2019-02-22T04:25:06.126Z,8.59
2019-02-22T04:26:07.112Z,8.59
2019-02-22T04:27:07.129Z,8.60
2019-02-22T04:28:07.095Z,8.61
2019-02-22T04:29:07.079Z,8.59
2019-02-22T04:30:07.079Z,8.53
2019-02-22T04:31:07.060Z,8.53
2019-02-22T04:32:07.054Z,8.50
2019-02-22T04:33:06.074Z,8.46
2019-02-22T04:34:07.025Z,8.50
2019-02-22T04:35:07.072Z,8.52
2019-02-22T04:36:06.033Z,8.46
2019-02-22T04:37:06.991Z,8.34
2019-02-22T04:38:06.984Z,8.35
2019-02-22T04:39:07.055Z,8.36
2019-02-22T04:40:06.959Z,8.36
2019-02-22T04:41:06.987Z,8.35
2019-02-22T04:42:06.970Z,8.36
2019-02-22T04:43:06.926Z,8.38
2019-02-22T04:44:06.908Z,8.34
2019-02-22T04:45:05.903Z,8.32
2019-02-22T04:46:06.894Z,8.34
2019-02-22T04:47:07.716Z,8.44
2019-02-22T04:48:06.902Z,8.46
2019-02-22T04:49:06.859Z,8.50
2019-02-22T04:50:06.864Z,8.44
2019-02-22T04:51:06.835Z,8.45
2019-02-22T04:52:06.836Z,8.49
2019-02-22T04:53:06.831Z,8.46
2019-02-22T04:54:06.813Z,8.49
2019-02-22T04:55:05.798Z,8.50
2019-02-22T04:56:05.806Z,8.52
2019-02-22T04:57:06.777Z,8.44
2019-02-22T04:58:05.765Z,8.49
2019-02-22T04:59:06.752Z,8.45
2019-02-22T05:00:06.834Z,8.42
2019-02-22T05:01:05.727Z,8.38
2019-02-22T05:02:05.753Z,8.36
2019-02-22T05:03:06.718Z,8.41
2019-02-22T05:04:06.697Z,8.34
2019-02-22T05:05:06.690Z,8.38
2019-02-22T05:06:06.683Z,8.38
2019-02-22T05:07:06.682Z,8.35
2019-02-22T05:08:06.654Z,8.36
2019-02-22T05:09:05.645Z,8.34
2019-02-22T05:10:05.633Z,8.34
2019-02-22T05:11:05.628Z,8.36
2019-02-22T05:12:10.883Z,8.34
2019-02-22T05:13:06.623Z,8.38
2019-02-22T05:14:06.597Z,8.32
2019-02-22T05:15:12.489Z,8.36
2019-02-22T05:16:06.576Z,8.36
2019-02-22T05:17:06.602Z,8.35
2019-02-22T05:18:06.546Z,8.28
2019-02-22T05:19:05.533Z,8.36
2019-02-22T05:20:06.522Z,8.44
2019-02-22T05:22:05.543Z,8.32
2019-02-22T05:23:07.571Z,8.36
2019-02-22T05:24:06.481Z,8.35
2019-02-22T05:25:06.464Z,8.35
2019-02-22T05:26:06.463Z,8.38
2019-02-22T05:27:06.477Z,8.35
2019-02-22T05:28:06.440Z,8.35
2019-02-22T05:29:06.424Z,8.35
2019-02-22T05:30:06.423Z,8.34
2019-02-22T05:31:06.407Z,8.46
2019-02-22T05:32:06.388Z,8.34
2019-02-22T05:33:06.419Z,8.35
2019-02-22T05:34:05.376Z,8.44
2019-02-22T05:35:06.354Z,8.35
2019-02-22T05:36:07.415Z,8.49
2019-02-22T05:37:05.363Z,8.49
2019-02-22T05:38:06.337Z,8.52
2019-02-22T05:39:18.069Z,8.53
2019-02-22T05:40:06.344Z,8.46
2019-02-22T05:41:05.302Z,8.52
2019-02-22T05:42:06.287Z,8.59
2019-02-22T05:43:06.274Z,8.59
2019-02-22T05:44:06.274Z,8.59
2019-02-22T05:45:05.253Z,8.57
2019-02-22T05:46:05.238Z,8.57
2019-02-22T05:47:06.231Z,8.56
2019-02-22T05:48:06.214Z,8.59
2019-02-22T05:49:06.208Z,8.60
2019-02-22T05:50:06.204Z,8.59
2019-02-22T05:51:06.195Z,8.52
2019-02-22T05:52:06.176Z,8.59
2019-02-22T05:53:06.170Z,8.59
2019-02-22T05:54:06.154Z,8.56
2019-02-22T05:55:05.141Z,8.52
2019-02-22T05:56:05.147Z,8.57
2019-02-22T05:57:05.154Z,8.59
2019-02-22T05:58:06.128Z,8.53
2019-02-22T05:59:05.094Z,8.49
2019-02-22T06:00:06.096Z,8.50
2019-02-22T06:01:07.013Z,8.56
2019-02-22T06:02:06.063Z,8.52
2019-02-22T06:03:06.255Z,8.49
2019-02-22T06:04:05.043Z,8.50
2019-02-22T06:05:06.029Z,8.44
2019-02-22T06:06:05.104Z,8.52
2019-02-22T06:07:05.010Z,8.52
2019-02-22T06:08:08.843Z,8.46
2019-02-22T06:09:06.015Z,8.49
2019-02-22T06:10:05.977Z,8.49
2019-02-22T06:11:04.959Z,8.50
2019-02-22T06:12:05.987Z,8.49
2019-02-22T06:13:05.935Z,8.50
2019-02-22T06:14:05.933Z,8.49
2019-02-22T06:15:04.923Z,8.50
2019-02-22T06:16:04.914Z,8.45
2019-02-22T06:17:14.133Z,8.49
2019-02-22T06:18:05.913Z,8.44
2019-02-22T06:19:04.872Z,8.46
2019-02-22T06:20:05.859Z,8.46
2019-02-22T06:21:05.862Z,8.45
2019-02-22T06:22:04.854Z,8.50
2019-02-22T06:23:05.837Z,8.50
2019-02-22T06:24:05.868Z,8.46
2019-02-22T06:25:04.822Z,8.50
2019-02-22T06:26:05.815Z,8.50
2019-02-22T06:27:05.791Z,8.50
2019-02-22T06:28:05.775Z,8.52
2019-02-22T06:29:04.766Z,8.52
2019-02-22T06:30:05.782Z,8.44
2019-02-22T06:31:05.743Z,8.52
2019-02-22T06:32:05.727Z,8.49
2019-02-22T06:33:04.727Z,8.54
2019-02-22T06:34:08.521Z,8.49
2019-02-22T06:35:04.758Z,8.50
2019-02-22T06:36:05.744Z,8.46
2019-02-22T06:37:05.687Z,8.45
2019-02-22T06:38:06.167Z,8.50
2019-02-22T06:39:05.653Z,8.44
2019-02-22T06:40:05.669Z,8.42
2019-02-22T06:41:05.675Z,8.45
2019-02-22T06:42:04.627Z,8.38
2019-02-22T06:43:05.607Z,8.49
2019-02-22T06:44:08.172Z,8.53
2019-02-22T06:45:05.626Z,8.45
2019-02-22T06:46:04.576Z,8.49
2019-02-22T06:47:04.568Z,8.45
2019-02-22T06:48:04.575Z,8.50
2019-02-22T06:49:05.547Z,8.54
2019-02-22T06:50:04.564Z,8.52
2019-02-22T06:51:05.523Z,8.56
2019-02-22T06:52:05.508Z,8.52
2019-02-22T06:53:05.503Z,8.52
2019-02-22T06:54:05.487Z,8.45
2019-02-22T06:55:05.516Z,8.53
2019-02-22T06:56:05.478Z,8.45
2019-02-22T06:57:08.666Z,8.36
2019-02-22T06:58:05.438Z,8.34
2019-02-22T06:59:04.435Z,8.35
2019-02-22T07:00:05.425Z,8.35
2019-02-22T07:01:05.415Z,8.42
2019-02-22T07:02:07.666Z,8.41
2019-02-22T07:03:05.401Z,8.38
2019-02-22T07:04:05.391Z,8.39
2019-02-22T07:05:05.367Z,8.38
2019-02-22T07:06:05.651Z,8.42
2019-02-22T07:07:05.400Z,8.36
2019-02-22T07:08:05.349Z,8.39
2019-02-22T07:09:04.329Z,8.18
2019-02-22T07:10:04.317Z,8.32
2019-02-22T07:11:04.302Z,8.28
2019-02-22T07:12:05.289Z,8.36
2019-02-22T07:13:05.313Z,8.21
2019-02-22T07:14:05.263Z,8.20
2019-02-22T07:15:07.167Z,8.27
2019-02-22T07:16:04.254Z,8.32
2019-02-22T07:17:04.237Z,8.31
2019-02-22T07:18:08.151Z,8.27
2019-02-22T07:19:05.208Z,8.32
2019-02-22T07:20:04.249Z,8.26
2019-02-22T07:21:08.156Z,8.21
2019-02-22T07:22:05.173Z,8.17
2019-02-22T07:23:08.084Z,8.11
2019-02-22T07:24:05.167Z,8.16
2019-02-22T07:25:05.179Z,8.13
2019-02-22T07:26:05.135Z,8.14
2019-02-22T07:27:05.126Z,8.08
2019-02-22T07:28:05.141Z,8.13
2019-02-22T07:29:05.099Z,8.01
2019-02-22T07:30:05.095Z,8.03
2019-02-22T07:31:05.082Z,7.99
2019-02-22T07:32:06.373Z,7.96
2019-02-22T07:33:05.099Z,8.03
2019-02-22T07:34:05.051Z,7.95
2019-02-22T07:35:05.050Z,7.85
2019-02-22T07:36:05.021Z,7.91
2019-02-22T07:37:05.022Z,7.84
2019-02-22T07:38:05.013Z,7.93
2019-02-22T07:39:05.024Z,7.87
2019-02-22T07:40:04.983Z,7.84
2019-02-22T07:41:04.977Z,7.96
2019-02-22T07:42:04.965Z,7.75
2019-02-22T07:43:07.929Z,7.85
2019-02-22T07:44:04.938Z,7.84
2019-02-22T07:45:04.925Z,7.85
2019-02-22T07:46:04.909Z,7.91
2019-02-22T07:47:04.905Z,7.91
2019-02-22T07:48:04.896Z,7.75
2019-02-22T07:49:04.005Z,7.77
2019-02-22T07:50:04.865Z,7.90
2019-02-22T07:51:04.864Z,7.84
2019-02-22T07:52:03.850Z,7.91
2019-02-22T07:53:04.843Z,7.83
2019-02-22T07:54:03.838Z,7.78
2019-02-22T07:55:04.936Z,7.78
2019-02-22T07:56:03.810Z,7.80
2019-02-22T07:57:04.798Z,7.80
2019-02-22T07:58:04.782Z,7.90
2019-02-22T07:59:04.803Z,7.84
2019-02-22T08:00:03.765Z,7.81
2019-02-22T08:01:03.806Z,7.81
2019-02-22T08:02:04.736Z,7.77
2019-02-22T08:03:04.732Z,7.78
2019-02-22T08:04:03.727Z,7.69
2019-02-22T08:05:04.709Z,7.77
2019-02-22T08:06:04.733Z,7.80
2019-02-22T08:07:04.680Z,7.64
2019-02-22T08:08:04.671Z,7.69
2019-02-22T08:09:04.675Z,7.66
2019-02-22T08:10:04.675Z,7.61
2019-02-22T08:11:04.661Z,7.62
2019-02-22T08:12:04.625Z,7.59
2019-02-22T08:13:03.621Z,7.56
2019-02-22T08:14:04.616Z,7.66
2019-02-22T08:15:04.597Z,7.56
2019-02-22T08:16:03.622Z,7.61
2019-02-22T08:17:03.574Z,7.53
2019-02-22T08:18:04.558Z,7.56
2019-02-22T08:19:04.554Z,7.51
2019-02-22T08:20:03.545Z,7.53
2019-02-22T08:21:04.556Z,7.44
2019-02-22T08:22:04.519Z,7.44
2019-02-22T08:23:04.546Z,7.41
2019-02-22T08:24:04.500Z,7.26
2019-02-22T08:25:04.500Z,7.25
2019-02-22T08:26:04.510Z,7.08
2019-02-22T08:27:04.464Z,7.04
2019-02-22T08:28:03.457Z,6.96
2019-02-22T08:29:04.469Z,6.93
2019-02-22T08:30:03.430Z,6.89
2019-02-22T08:31:03.427Z,6.89
2019-02-22T08:32:04.454Z,6.83
2019-02-22T08:33:04.402Z,6.85
2019-02-22T08:34:04.383Z,6.74
2019-02-22T08:35:04.374Z,6.68
2019-02-22T08:36:04.361Z,6.68
2019-02-22T08:37:04.352Z,6.74
2019-02-22T08:38:04.376Z,6.67
2019-02-22T08:39:04.332Z,6.67
2019-02-22T08:40:04.322Z,6.74
2019-02-22T08:41:04.314Z,6.56
2019-02-22T08:42:04.304Z,6.68
2019-02-22T08:43:04.287Z,6.62
2019-02-22T08:44:04.321Z,6.59
2019-02-22T08:45:04.267Z,6.60
2019-02-22T08:46:04.294Z,6.60
2019-02-22T08:47:04.240Z,6.59
2019-02-22T08:48:03.256Z,6.53
2019-02-22T08:49:04.224Z,6.46
2019-02-22T08:50:03.210Z,6.47
2019-02-22T08:51:06.814Z,6.41
2019-02-22T08:52:04.228Z,6.39
2019-02-22T08:53:04.184Z,6.41
2019-02-22T08:54:04.198Z,6.41
2019-02-22T08:55:04.168Z,6.52
2019-02-22T08:56:04.197Z,6.52
2019-02-22T08:57:04.147Z,6.56
2019-02-22T08:58:03.133Z,6.59
2019-02-22T08:59:04.165Z,6.60
2019-02-22T09:00:03.107Z,6.56
2019-02-22T09:01:03.148Z,6.65
2019-02-22T09:02:04.084Z,6.70
2019-02-22T09:03:03.080Z,6.56
2019-02-22T09:04:04.054Z,6.57
2019-02-22T09:05:04.048Z,6.60
2019-02-22T09:06:04.043Z,6.56
2019-02-22T09:07:04.090Z,6.53
2019-02-22T09:08:03.022Z,6.53
2019-02-22T09:09:04.036Z,6.60
2019-02-22T09:10:03.000Z,6.59
2019-02-22T09:11:02.982Z,6.60
2019-02-22T09:12:03.963Z,6.59
2019-02-22T09:13:03.001Z,6.52
2019-02-22T09:14:03.947Z,6.53
2019-02-22T09:15:03.941Z,6.50
2019-02-22T09:16:02.934Z,6.49
2019-02-22T09:17:03.918Z,6.56
2019-02-22T09:18:03.931Z,6.47
2019-02-22T09:19:04.630Z,6.46
2019-02-22T09:20:03.888Z,6.38
2019-02-22T09:21:03.920Z,6.41
2019-02-22T09:22:03.855Z,6.43
2019-02-22T09:23:03.853Z,6.41
2019-02-22T09:24:02.847Z,6.35
2019-02-22T09:25:02.824Z,6.32
2019-02-22T09:26:02.815Z,6.31
2019-02-22T09:27:06.616Z,6.29
2019-02-22T09:28:03.799Z,6.41
2019-02-22T09:29:02.788Z,6.35
2019-02-22T09:30:03.777Z,6.34
2019-02-22T09:31:05.612Z,6.35
2019-02-22T09:32:03.764Z,6.25
2019-02-22T09:33:03.876Z,6.36
2019-02-22T09:34:02.733Z,6.35
2019-02-22T09:35:03.714Z,6.34
2019-02-22T09:36:03.703Z,6.34
2019-02-22T09:37:03.695Z,6.31
2019-02-22T09:38:02.680Z,6.35
2019-02-22T09:39:03.706Z,6.29
2019-02-22T09:40:03.662Z,6.26
2019-02-22T09:41:03.660Z,6.20
2019-02-22T09:42:03.643Z,6.16
2019-02-22T09:43:03.650Z,6.19
2019-02-22T09:44:03.642Z,6.17
2019-02-22T09:45:03.617Z,6.29
2019-02-22T09:46:03.594Z,6.31
2019-02-22T09:47:02.643Z,6.25
2019-02-22T09:48:02.579Z,6.35
2019-02-22T09:49:03.664Z,6.35
2019-02-22T09:50:02.550Z,6.36
2019-02-22T09:51:03.567Z,6.39
2019-02-22T09:52:03.531Z,6.41
2019-02-22T09:53:03.514Z,6.36
2019-02-22T09:54:02.547Z,6.38
2019-02-22T09:55:03.501Z,6.39
2019-02-22T09:56:03.489Z,6.39
2019-02-22T09:57:03.488Z,6.41
2019-02-22T09:58:02.471Z,6.34
2019-02-22T09:59:03.604Z,6.36
2019-02-22T10:00:03.430Z,6.25
2019-02-22T10:01:03.488Z,6.31
2019-02-22T10:02:03.422Z,6.29
2019-02-22T10:04:02.438Z,6.31
2019-02-22T10:05:02.389Z,6.35
2019-02-22T10:06:02.384Z,6.50
2019-02-22T10:07:03.366Z,6.38
2019-02-22T10:08:03.361Z,6.26
2019-02-22T10:09:04.089Z,6.34
2019-02-22T10:10:03.344Z,6.25
2019-02-22T10:11:02.334Z,6.35
2019-02-22T10:12:03.317Z,6.29
2019-02-22T10:13:03.304Z,6.32
2019-02-22T10:14:06.586Z,6.25
2019-02-22T10:15:03.305Z,6.28
2019-02-22T10:16:02.266Z,6.36
2019-02-22T10:17:03.261Z,6.29
2019-02-22T10:18:03.253Z,6.34
2019-02-22T10:19:02.237Z,6.17
2019-02-22T10:20:03.231Z,6.17
2019-02-22T10:21:03.328Z,6.22
2019-02-22T10:22:03.201Z,6.13
2019-02-22T10:23:02.193Z,6.05
2019-02-22T10:24:03.181Z,6.06
2019-02-22T10:25:02.172Z,6.13
2019-02-22T10:26:05.141Z,6.07
2019-02-22T10:27:03.152Z,6.06
2019-02-22T10:28:04.092Z,6.02
2019-02-22T10:29:02.128Z,6.01
2019-02-22T10:30:03.112Z,5.91
2019-02-22T10:31:06.094Z,5.91
2019-02-22T10:32:03.095Z,5.90
2019-02-22T10:33:03.079Z,5.90
2019-02-22T10:34:03.063Z,5.88
2019-02-22T10:35:03.056Z,5.83
2019-02-22T10:36:03.596Z,5.72
2019-02-22T10:37:03.060Z,5.77
2019-02-22T10:38:03.029Z,5.76
2019-02-22T10:39:02.015Z,5.76
2019-02-22T10:40:03.000Z,5.73
2019-02-22T10:41:02.991Z,5.77
2019-02-22T10:42:02.991Z,5.67
2019-02-22T10:43:02.997Z,5.64
2019-02-22T10:44:03.045Z,5.72
2019-02-22T10:45:02.966Z,5.58
2019-02-22T10:46:02.938Z,5.58
2019-02-22T10:47:02.924Z,5.54
2019-02-22T10:48:02.931Z,5.47
2019-02-22T10:49:01.943Z,5.54
2019-02-22T10:50:02.896Z,5.54
2019-02-22T10:51:02.889Z,5.40
2019-02-22T10:52:01.877Z,5.38
2019-02-22T10:53:02.634Z,5.34
2019-02-22T10:54:01.854Z,5.26
2019-02-22T10:55:02.866Z,5.37
2019-02-22T10:56:03.206Z,5.31
2019-02-22T10:57:02.827Z,5.40
2019-02-22T10:58:01.802Z,5.31
2019-02-22T10:59:02.805Z,5.29
2019-02-22T11:00:02.791Z,5.28
2019-02-22T11:01:02.777Z,5.33
2019-02-22T11:02:02.789Z,5.25
2019-02-22T11:03:02.755Z,5.33
2019-02-22T11:04:01.792Z,5.29
2019-02-22T11:05:01.737Z,5.26
2019-02-22T11:06:01.718Z,5.19
2019-02-22T11:07:02.741Z,5.26
2019-02-22T11:08:02.691Z,5.18
2019-02-22T11:09:02.731Z,5.13
2019-02-22T11:10:02.677Z,5.13
2019-02-22T11:11:02.666Z,5.16
2019-02-22T11:12:01.656Z,5.10
2019-02-22T11:13:01.647Z,5.13
2019-02-22T11:14:02.633Z,5.12
2019-02-22T11:15:02.652Z,5.08
2019-02-22T11:16:02.609Z,5.13
2019-02-22T11:17:02.596Z,5.12
2019-02-22T11:18:02.584Z,5.18
2019-02-22T11:19:01.571Z,5.15
2019-02-22T11:20:02.618Z,5.12
2019-02-22T11:21:01.576Z,5.12
2019-02-22T11:22:02.574Z,5.05
2019-02-22T11:23:01.533Z,5.13
2019-02-22T11:24:01.520Z,5.05
2019-02-22T11:25:01.506Z,4.98
2019-02-22T11:26:01.506Z,4.97
2019-02-22T11:27:02.523Z,4.94
2019-02-22T11:28:01.486Z,4.98
2019-02-22T11:29:01.459Z,4.95
2019-02-22T11:30:02.493Z,4.95
2019-02-22T11:31:01.457Z,4.98
2019-02-22T11:32:02.440Z,4.97
2019-02-22T11:33:02.423Z,4.98
2019-02-22T11:34:02.410Z,5.01
2019-02-22T11:35:01.404Z,4.86
2019-02-22T11:36:01.422Z,4.89
2019-02-22T11:37:02.386Z,4.84
2019-02-22T11:38:02.371Z,4.84
2019-02-22T11:39:02.345Z,4.87
2019-02-22T11:40:01.356Z,4.89
2019-02-22T11:41:02.358Z,4.87
2019-02-22T11:42:02.367Z,4.83
2019-02-22T11:43:02.311Z,4.78
2019-02-22T11:44:02.291Z,4.76
2019-02-22T11:45:02.302Z,4.67
2019-02-22T11:46:02.277Z,4.75
2019-02-22T11:47:02.304Z,4.68
2019-02-22T11:48:08.701Z,4.74
2019-02-22T11:49:02.264Z,4.66
2019-02-22T11:50:02.242Z,4.60
2019-02-22T11:51:01.244Z,4.71
2019-02-22T11:52:01.315Z,4.68
2019-02-22T11:53:02.208Z,4.64
2019-02-22T11:54:02.194Z,4.67
2019-02-22T11:55:01.190Z,4.64
2019-02-22T11:56:01.183Z,4.57
2019-02-22T11:57:01.162Z,4.63
2019-02-22T11:58:02.177Z,4.53
2019-02-22T11:59:01.140Z,4.52
2019-02-22T12:00:02.121Z,4.53
2019-02-22T12:01:02.117Z,4.52
2019-02-22T12:02:02.137Z,4.56
2019-02-22T12:03:15.923Z,4.50
2019-02-22T12:04:02.082Z,4.53
2019-02-22T12:05:02.076Z,4.52
2019-02-22T12:06:02.064Z,4.50
2019-02-22T12:07:02.068Z,4.42
2019-02-22T12:08:03.608Z,4.50
2019-02-22T12:09:02.027Z,4.49
2019-02-22T12:10:02.014Z,4.42
2019-02-22T12:11:02.007Z,4.42
2019-02-22T12:12:01.994Z,4.42
2019-02-22T12:13:01.993Z,4.49
2019-02-22T12:14:04.164Z,4.36
2019-02-22T12:15:02.088Z,4.34
2019-02-22T12:16:01.952Z,4.34
2019-02-22T12:17:01.942Z,4.31
2019-02-22T12:18:00.922Z,4.21
2019-02-22T12:19:00.944Z,4.32
2019-02-22T12:20:01.937Z,4.31
2019-02-22T12:21:00.894Z,4.30
2019-02-22T12:22:00.890Z,4.32
2019-02-22T12:23:01.880Z,4.34
2019-02-22T12:24:00.857Z,4.34
2019-02-22T12:25:01.104Z,4.30
2019-02-22T12:26:01.838Z,4.24
2019-02-22T12:27:00.830Z,4.24
2019-02-22T12:28:01.882Z,4.25
2019-02-22T12:29:00.810Z,4.28
2019-02-22T12:30:00.865Z,4.28
2019-02-22T12:31:01.780Z,4.24
2019-02-22T12:32:00.773Z,4.25
2019-02-22T12:33:00.763Z,4.25
2019-02-22T12:34:01.754Z,4.18
2019-02-22T12:35:01.802Z,4.16
2019-02-22T12:36:00.728Z,4.18
2019-02-22T12:37:00.720Z,4.21
2019-02-22T12:38:01.703Z,4.22
2019-02-22T12:39:01.768Z,4.16
2019-02-22T12:40:01.694Z,4.21
2019-02-22T12:41:01.694Z,4.18
2019-02-22T12:42:01.658Z,4.14
2019-02-22T12:43:02.557Z,4.04
2019-02-22T12:44:01.646Z,4.14
2019-02-22T12:45:03.257Z,4.12
2019-02-22T12:46:00.654Z,4.02
2019-02-22T12:47:01.653Z,4.06
2019-02-22T12:48:00.689Z,4.04
2019-02-22T12:49:01.614Z,4.03
2019-02-22T12:50:01.594Z,4.06
2019-02-22T12:51:00.573Z,4.03
2019-02-22T12:52:01.560Z,4.07
2019-02-22T12:53:00.542Z,4.07
2019-02-22T12:54:02.053Z,4.04
2019-02-22T12:55:02.060Z,4.00
2019-02-22T12:56:01.501Z,3.99
2019-02-22T12:57:00.514Z,4.00
2019-02-22T12:58:01.495Z,3.94
2019-02-22T12:59:01.477Z,3.92
2019-02-22T13:00:00.461Z,3.92
2019-02-22T13:01:01.486Z,3.85
2019-02-22T13:02:00.477Z,3.96
2019-02-22T13:03:02.330Z,3.96
2019-02-22T13:04:00.432Z,3.92
2019-02-22T13:05:01.408Z,3.88
2019-02-22T13:06:01.412Z,3.88
2019-02-22T13:07:01.423Z,3.95
2019-02-22T13:08:01.370Z,3.86
2019-02-22T13:09:00.365Z,3.89
2019-02-22T13:10:01.369Z,3.91
2019-02-22T13:11:00.343Z,3.99
2019-02-22T13:12:00.331Z,3.88
2019-02-22T13:13:00.347Z,3.95
2019-02-22T13:14:00.307Z,3.96
2019-02-22T13:15:00.413Z,3.91
2019-02-22T13:16:00.295Z,3.86
2019-02-22T13:17:00.286Z,4.02
2019-02-22T13:18:02.830Z,3.99
2019-02-22T13:19:01.250Z,4.02
2019-02-22T13:20:00.327Z,3.96
2019-02-22T13:21:02.043Z,4.02
2019-02-22T13:22:02.047Z,4.04
2019-02-22T13:23:01.207Z,4.03
2019-02-22T13:24:01.203Z,4.03
2019-02-22T13:25:01.466Z,4.00
2019-02-22T13:26:01.188Z,3.99
2019-02-22T13:27:01.181Z,4.09